Shoal Cove, Canada
Current Conditions -  °F | °C
As of 2:00 PM on Friday 21 Nov 2014 (Local Time) from CYBX Reporting Station
Broken Clouds Broken Clouds  
Wind Chill: 21°   Ceiling: 1500
Heat Index: 28°   Visibility: 15mi
Dew Point: 25°   Wind: 7mph
Humidity: 86%   Direction: 30°NNE
Pressure: 29.26"   Gusts: NA
Location:  51.02°N, 57.02°W
Report Text: CYBX 211700Z 03006KT 15SM BKN015 BKN120 M02/M04 A2926 RMKCU5AC2 SLP912
Loading
Personal Weather Stations






























Interactive Weather Map New forecast layout! Learn more

10-Day Weather Forecast

Advertisements
Track Severe Weather on mobile